LAKE WOODRUFF QD FL US current weather conditions

sailwx.info

Wind from 244 at 0 knots gusting 2

Air temperature 21.7° C
Dewpoint 20.3° C

Last reported at 2019-Dec-10 10:59 UTC.
Time now 2019-Dec-10 12:48 UTC

Location: N 27°03' W 080°07'.
View on Google Maps.

See reports from other nearby stations

  
Tides and Currents Weather Stations Pressure Air Temp Water Temp Dewpoint Dewpoint Depression Visibility Wind Speed Wind Dir Waves Ship Positions
date/time (UTC)wind fromknots sea level pressurealtimeterstation pressurevisibilityair tempwater tempwave heightnotes
2019-Dec-10 10:59 244 0 gusting 2 21.7
2019-Dec-10 09:59 229 0 gusting 3 22.2
2019-Dec-10 08:59 243 1 gusting 4 22.8
2019-Dec-10 07:59 163 2 gusting 11 23.3
2019-Dec-10 06:59 164 2 gusting 12 22.8
2019-Dec-10 05:59 168 1 gusting 13 23.3
2019-Dec-10 04:59 149 4 gusting 8 24.4
2019-Dec-10 03:59 159 2 gusting 7 23.9
2019-Dec-10 02:59 23.3
2019-Dec-10 01:59 23.3
2019-Dec-10 00:59 22.2
2019-Dec-09 23:59 22.8
2019-Dec-09 22:59 23.3
2019-Dec-09 21:59 168 4 gusting 9 25.6
2019-Dec-09 20:59 154 5 gusting 10 27.2
2019-Dec-09 19:59 147 6 gusting 12 27.8
2019-Dec-09 18:59 139 6 gusting 12 27.8
2019-Dec-09 17:59 137 5 gusting 12 27.8
2019-Dec-09 16:59 143 5 gusting 11 27.8
2019-Dec-09 15:59 145 5 gusting 9 27.8
2019-Dec-09 14:59 215 3 gusting 7 26.7
2019-Dec-09 13:59 23.9
2019-Dec-09 12:59 19.4
2019-Dec-09 11:59 17.2
2019-Dec-09 10:59 17.2
2019-Dec-09 09:59 267 2 gusting 3 16.1
2019-Dec-09 08:59 17.8
2019-Dec-09 07:59 299 1 gusting 3 18.9
2019-Dec-09 06:59 166 2 gusting 6 21.7
2019-Dec-09 05:59 149 1 gusting 6 22.2
2019-Dec-09 04:59 130 2 gusting 8 22.8
2019-Dec-09 03:59 131 4 gusting 9 22.8
2019-Dec-09 02:59 121 5 gusting 12 23.3
2019-Dec-09 01:59 121 5 gusting 10 23.3
2019-Dec-09 00:59 124 2 gusting 8 23.3
2019-Dec-08 23:59 118 3 gusting 8 23.3
2019-Dec-08 22:59 117 2 gusting 8 23.3
2019-Dec-08 21:59 112 2 gusting 10 24.4
2019-Dec-08 20:59 106 4 gusting 10 25.6
2019-Dec-08 19:59 118 3 gusting 12 26.1
2019-Dec-08 18:59 116 6 gusting 11 26.7
2019-Dec-08 17:59 113 5 gusting 10 27.2
2019-Dec-08 16:59 117 5 gusting 11 26.7
2019-Dec-08 15:59 125 4 gusting 9 26.7
2019-Dec-08 14:59 112 4 gusting 7 25.6
2019-Dec-08 13:59 114 3 gusting 7 25.6
2019-Dec-08 12:59 103 4 gusting 9 22.8